Time;durP1;ratioP1;P1;durP2;ratioP2;P2;SDS_P1;SDS_P2;PMS_P1;PMS_P2;Temp;Humidity;BMP_temperature;BMP_pressure;BME280_temperature;BME280_humidity;BME280_pressure;Samples;Min_cycle;Max_cycle;Signal;HPM_P1;HPM_P2
2022/12/13 00:01:37;;;;;;;1.75;1.33;;;;;;;;;;5033665;28;20036;-82
2022/12/13 00:04:05;;;;;;;3.17;1.70;;;;;;;;;;5034268;28;20037;-82
2022/12/13 00:06:31;;;;;;;2.13;1.92;;;;;;;;;;5032398;28;20145;-81
2022/12/13 00:08:58;;;;;;;2.53;2.03;;;;;;;;;;5034773;28;20060;-84
2022/12/13 00:11:24;;;;;;;0.98;0.98;;;;;;;;;;5032185;28;20029;-84
2022/12/13 00:13:50;;;;;;;3.25;1.70;;;;;;;;;;5036237;28;20433;-84
2022/12/13 00:16:18;;;;;;;2.88;0.82;;;;;;;;;;5033690;28;20033;-82
2022/12/13 00:18:47;;;;;;;2.33;2.20;;;;;;;;;;5032170;28;20040;-85
2022/12/13 00:21:15;;;;;;;2.55;2.35;;;;;;;;;;5033356;28;20038;-84
2022/12/13 00:23:40;;;;;;;1.50;1.40;;;;;;;;;;5033293;28;20116;-83
2022/12/13 00:26:09;;;;;;;3.42;1.80;;;;;;;;;;5033583;28;20105;-84
2022/12/13 00:28:34;;;;;;;6.78;1.23;;;;;;;;;;5036610;28;20030;-82
2022/12/13 00:31:00;;;;;;;1.73;1.63;;;;;;;;;;5035032;28;20021;-83
2022/12/13 00:33:27;;;;;;;0.75;0.55;;;;;;;;;;5032216;28;20021;-82
2022/12/13 00:35:53;;;;;;;0.90;0.85;;;;;;;;;;5033266;28;20452;-83
2022/12/13 00:38:18;;;;;;;1.15;0.95;;;;;;;;;;5033018;28;20108;-83
2022/12/13 00:40:44;;;;;;;0.73;0.73;;;;;;;;;;5033239;28;20025;-84
2022/12/13 00:43:09;;;;;;;0.52;0.47;;;;;;;;;;5031415;28;20197;-83
2022/12/13 00:45:35;;;;;;;1.58;0.95;;;;;;;;;;5033418;28;20018;-84
2022/12/13 00:48:00;;;;;;;3.38;0.98;;;;;;;;;;5032189;28;20064;-83
2022/12/13 00:50:26;;;;;;;0.75;0.55;;;;;;;;;;5036814;28;20025;-82
2022/12/13 00:52:51;;;;;;;0.40;0.40;;;;;;;;;;5037407;28;20035;-82
2022/12/13 00:55:17;;;;;;;1.48;0.80;;;;;;;;;;5038420;28;20492;-83
2022/12/13 00:57:43;;;;;;;1.48;1.38;;;;;;;;;;5037725;28;20431;-84
2022/12/13 01:00:09;;;;;;;0.57;0.57;;;;;;;;;;5037487;28;20029;-83
2022/12/13 01:02:35;;;;;;;2.20;1.35;;;;;;;;;;5035327;28;20060;-82
2022/12/13 01:05:00;;;;;;;0.90;0.90;;;;;;;;;;5038177;28;20045;-86
2022/12/13 01:07:26;;;;;;;0.88;0.82;;;;;;;;;;5038395;28;20433;-83
2022/12/13 01:09:51;;;;;;;0.50;0.50;;;;;;;;;;5036425;28;20432;-82
2022/12/13 01:12:17;;;;;;;1.00;0.90;;;;;;;;;;5036893;28;20117;-81
2022/12/13 01:14:42;;;;;;;3.22;0.90;;;;;;;;;;5035509;28;20013;-82
2022/12/13 01:17:07;;;;;;;0.80;0.80;;;;;;;;;;5035336;28;20057;-85
2022/12/13 01:19:34;;;;;;;2.13;1.42;;;;;;;;;;5036909;28;20036;-81
2022/12/13 01:22:02;;;;;;;0.70;0.43;;;;;;;;;;5035246;28;20039;-83
2022/12/13 01:24:29;;;;;;;1.88;1.73;;;;;;;;;;5035177;28;20031;-84
2022/12/13 01:26:55;;;;;;;0.55;0.55;;;;;;;;;;5036158;28;20107;-84
2022/12/13 01:29:21;;;;;;;0.90;0.60;;;;;;;;;;5037605;28;20466;-85
2022/12/13 01:31:47;;;;;;;3.25;1.77;;;;;;;;;;5036827;28;20100;-82
2022/12/13 01:34:14;;;;;;;1.08;0.90;;;;;;;;;;5037434;28;20117;-83
2022/12/13 01:36:42;;;;;;;1.33;1.10;;;;;;;;;;5036287;28;20029;-84
2022/12/13 01:39:09;;;;;;;1.27;1.02;;;;;;;;;;5036487;28;20056;-82
2022/12/13 01:41:35;;;;;;;2.47;1.45;;;;;;;;;;5036593;28;20057;-83
2022/12/13 01:44:06;;;;;;;1.10;1.08;;;;;;;;;;5036982;28;20061;-81
2022/12/13 01:46:35;;;;;;;0.68;0.68;;;;;;;;;;5035730;28;20076;-82
2022/12/13 01:49:08;;;;;;;0.93;0.88;;;;;;;;;;5037093;28;20534;-83
2022/12/13 01:52:03;;;;;;;2.35;2.25;;;;;;;;;;5037338;28;20497;-82
2022/12/13 01:54:33;;;;;;;1.40;0.95;;;;;;;;;;5033635;28;20057;-83
2022/12/13 01:56:59;;;;;;;1.10;0.68;;;;;;;;;;5035456;28;20033;-84
2022/12/13 01:59:26;;;;;;;3.38;1.98;;;;;;;;;;5036248;28;20512;-85
2022/12/13 02:01:51;;;;;;;1.55;1.40;;;;;;;;;;5037531;28;20778;-83
2022/12/13 02:04:29;;;;;;;1.33;1.08;;;;;;;;;;5034815;28;20816;-82
2022/12/13 02:06:55;;;;;;;2.33;1.17;;;;;;;;;;5034693;28;20450;-82
2022/12/13 02:09:21;;;;;;;1.85;1.50;;;;;;;;;;5037263;28;20037;-84
2022/12/13 02:11:48;;;;;;;5.47;2.55;;;;;;;;;;5036685;28;20022;-84
2022/12/13 02:14:14;;;;;;;0.75;0.75;;;;;;;;;;5036402;28;20042;-82
2022/12/13 02:16:51;;;;;;;4.88;1.38;;;;;;;;;;5036141;28;20432;-86
2022/12/13 02:19:53;;;;;;;2.25;1.63;;;;;;;;;;5037243;28;20044;-87
2022/12/13 02:22:53;;;;;;;0.85;0.70;;;;;;;;;;5035040;28;20052;-86
2022/12/13 02:25:27;;;;;;;;;;;;;;;;;;5035215;28;20033;-84
2022/12/13 02:28:15;;;;;;;0.80;0.80;;;;;;;;;;5035841;28;20000;-83
2022/12/13 02:30:45;;;;;;;2.97;1.98;;;;;;;;;;5034233;28;20071;-86
2022/12/13 02:33:34;;;;;;;1.35;1.25;;;;;;;;;;5032872;28;20029;-86
2022/12/13 02:36:14;;;;;;;1.85;1.15;;;;;;;;;;5032018;28;20053;-84
2022/12/13 02:38:55;;;;;;;1.83;1.23;;;;;;;;;;5036717;28;20021;-83
2022/12/13 02:41:33;;;;;;;1.83;1.35;;;;;;;;;;5036876;28;20032;-82
2022/12/13 02:44:05;;;;;;;1.15;0.90;;;;;;;;;;5050557;28;20030;-82
2022/12/13 02:46:35;;;;;;;1.50;1.38;;;;;;;;;;5034049;28;20029;-83
2022/12/13 02:49:04;;;;;;;2.88;2.35;;;;;;;;;;5034267;28;20037;-84
2022/12/13 02:51:31;;;;;;;2.60;2.33;;;;;;;;;;5034153;28;20547;-85
2022/12/13 02:53:56;;;;;;;1.30;1.25;;;;;;;;;;5034468;28;20033;-82
2022/12/13 02:56:21;;;;;;;2.58;1.83;;;;;;;;;;5035937;28;20033;-84
2022/12/13 02:58:51;;;;;;;4.25;2.30;;;;;;;;;;5035203;28;20021;-84
2022/12/13 03:01:32;;;;;;;2.92;2.00;;;;;;;;;;5033927;28;20389;-89
2022/12/13 03:04:07;;;;;;;10.23;1.85;;;;;;;;;;5050014;28;20127;-85
2022/12/13 03:07:11;;;;;;;2.85;2.13;;;;;;;;;;5034243;28;20053;-84
2022/12/13 03:09:58;;;;;;;4.68;1.63;;;;;;;;;;5034143;28;20022;-85
2022/12/13 03:15:20;;;;;;;1.30;1.20;;;;;;;;;;5034691;28;20052;-83
2022/12/13 03:17:58;;;;;;;2.45;2.17;;;;;;;;;;5034579;28;20036;-87
2022/12/13 03:20:26;;;;;;;3.38;1.77;;;;;;;;;;5036482;28;20031;-84
2022/12/13 03:22:53;;;;;;;5.45;3.17;;;;;;;;;;5034437;28;20017;-82
2022/12/13 03:25:20;;;;;;;2.33;1.60;;;;;;;;;;5034299;28;20056;-87
2022/12/13 03:27:45;;;;;;;3.08;1.63;;;;;;;;;;5033340;28;20056;-84
2022/12/13 03:30:11;;;;;;;1.63;1.52;;;;;;;;;;5033722;28;20025;-84
2022/12/13 03:32:37;;;;;;;5.05;3.47;;;;;;;;;;5033182;28;20045;-86
2022/12/13 03:35:02;;;;;;;2.75;2.55;;;;;;;;;;5049794;28;20021;-84
2022/12/13 03:37:28;;;;;;;3.95;3.28;;;;;;;;;;5032997;28;20021;-86
2022/12/13 03:39:53;;;;;;;5.43;3.95;;;;;;;;;;5033473;28;20041;-84
2022/12/13 03:42:19;;;;;;;4.32;3.92;;;;;;;;;;5034054;28;20033;-85
2022/12/13 03:44:44;;;;;;;2.53;2.33;;;;;;;;;;5034560;28;20028;-82
2022/12/13 03:47:10;;;;;;;5.63;3.30;;;;;;;;;;5031039;28;20546;-86
2022/12/13 03:49:35;;;;;;;3.40;2.38;;;;;;;;;;5034058;28;20029;-83
2022/12/13 03:52:01;;;;;;;1.50;1.40;;;;;;;;;;5034393;28;20022;-85
2022/12/13 03:54:26;;;;;;;4.20;1.77;;;;;;;;;;5034105;28;20381;-85
2022/12/13 03:56:51;;;;;;;2.80;2.33;;;;;;;;;;5032635;28;20026;-85
2022/12/13 03:59:17;;;;;;;1.15;1.05;;;;;;;;;;5034533;28;20021;-85
2022/12/13 04:01:42;;;;;;;1.05;0.95;;;;;;;;;;5035053;28;20382;-84
2022/12/13 04:04:08;;;;;;;3.10;2.75;;;;;;;;;;5032166;28;20025;-87
2022/12/13 04:06:33;;;;;;;3.15;1.92;;;;;;;;;;5034137;28;20045;-83
2022/12/13 04:08:59;;;;;;;1.52;1.42;;;;;;;;;;5034268;28;20025;-84
2022/12/13 04:14:12;;;;;;;3.40;2.03;;;;;;;;;;5034263;28;20393;-84
2022/12/13 04:16:38;;;;;;;2.40;1.77;;;;;;;;;;5034101;28;20021;-83
2022/12/13 04:19:03;;;;;;;0.98;0.98;;;;;;;;;;5036423;28;20057;-85
2022/12/13 04:21:29;;;;;;;5.78;2.38;;;;;;;;;;5033014;28;20025;-83
2022/12/13 04:23:54;;;;;;;1.80;1.70;;;;;;;;;;5036165;28;20108;-84
2022/12/13 04:26:20;;;;;;;1.50;1.40;;;;;;;;;;5038492;28;20033;-85
2022/12/13 04:28:45;;;;;;;1.63;1.52;;;;;;;;;;5038316;28;20037;-82
2022/12/13 04:31:10;;;;;;;3.70;1.13;;;;;;;;;;5036421;28;20021;-83
2022/12/13 04:33:36;;;;;;;1.65;0.52;;;;;;;;;;5037101;28;21444;-85
2022/12/13 04:36:02;;;;;;;2.60;1.48;;;;;;;;;;5035257;28;20022;-84
2022/12/13 04:38:28;;;;;;;0.63;0.60;;;;;;;;;;5036754;28;20452;-83
2022/12/13 04:41:03;;;;;;;1.17;0.65;;;;;;;;;;5039423;28;20037;-83
2022/12/13 04:43:28;;;;;;;2.00;1.15;;;;;;;;;;5030067;28;20029;-82
2022/12/13 04:45:55;;;;;;;0.55;0.47;;;;;;;;;;5036165;28;20488;-84
2022/12/13 04:48:20;;;;;;;0.50;0.50;;;;;;;;;;5067617;28;20083;-82
2022/12/13 04:50:46;;;;;;;2.08;1.75;;;;;;;;;;5033202;28;20024;-83
2022/12/13 04:53:15;;;;;;;3.13;1.02;;;;;;;;;;5032596;28;20036;-82
2022/12/13 04:55:40;;;;;;;2.50;2.00;;;;;;;;;;5034733;28;20037;-84
2022/12/13 04:58:05;;;;;;;1.60;1.48;;;;;;;;;;5036251;28;20082;-82
2022/12/13 05:00:31;;;;;;;3.13;1.65;;;;;;;;;;5035874;28;20056;-82
2022/12/13 05:02:56;;;;;;;1.92;1.48;;;;;;;;;;5034955;28;20440;-84
2022/12/13 05:05:22;;;;;;;4.25;2.88;;;;;;;;;;5035649;28;20049;-81
2022/12/13 05:07:47;;;;;;;1.65;1.52;;;;;;;;;;5034969;28;20028;-86
2022/12/13 05:10:13;;;;;;;3.90;2.00;;;;;;;;;;5035605;28;20033;-84
2022/12/13 05:12:38;;;;;;;2.95;2.20;;;;;;;;;;5033895;28;20028;-83
2022/12/13 05:15:04;;;;;;;3.25;2.67;;;;;;;;;;5034123;28;20032;-84
2022/12/13 05:17:30;;;;;;;1.98;1.65;;;;;;;;;;5033278;28;20025;-85
2022/12/13 05:19:56;;;;;;;4.70;2.60;;;;;;;;;;5033988;28;20032;-83
2022/12/13 05:22:21;;;;;;;3.97;2.58;;;;;;;;;;5033760;28;20060;-83
2022/12/13 05:24:47;;;;;;;6.68;3.00;;;;;;;;;;5033441;28;20409;-84
2022/12/13 05:27:13;;;;;;;4.10;2.38;;;;;;;;;;5039973;28;20025;-85
2022/12/13 05:29:38;;;;;;;3.05;1.58;;;;;;;;;;5040346;28;20017;-81
2022/12/13 05:32:04;;;;;;;1.92;1.67;;;;;;;;;;5037658;28;20020;-83
2022/12/13 05:34:30;;;;;;;0.95;0.95;;;;;;;;;;5032384;28;20405;-83
2022/12/13 05:36:55;;;;;;;3.35;2.67;;;;;;;;;;5036498;28;20025;-85
2022/12/13 05:39:20;;;;;;;1.83;1.63;;;;;;;;;;5032689;28;20441;-84
2022/12/13 05:41:46;;;;;;;3.60;2.45;;;;;;;;;;5036893;28;20029;-82
2022/12/13 05:44:13;;;;;;;2.88;2.22;;;;;;;;;;5034481;28;20036;-85
2022/12/13 05:46:39;;;;;;;3.45;2.80;;;;;;;;;;5033143;28;20025;-83
2022/12/13 05:49:04;;;;;;;3.70;1.83;;;;;;;;;;5033802;28;20044;-86
2022/12/13 05:51:30;;;;;;;4.47;2.95;;;;;;;;;;5032920;28;20465;-84
2022/12/13 05:53:55;;;;;;;2.60;2.03;;;;;;;;;;5037188;28;20159;-87
2022/12/13 05:56:20;;;;;;;3.72;3.42;;;;;;;;;;5036255;28;20019;-87
2022/12/13 05:58:46;;;;;;;7.53;4.00;;;;;;;;;;5034991;28;20030;-83
2022/12/13 06:01:15;;;;;;;5.95;3.45;;;;;;;;;;5038801;28;20029;-85
2022/12/13 06:03:41;;;;;;;8.63;3.95;;;;;;;;;;5041028;28;20021;-86
2022/12/13 06:06:08;;;;;;;5.70;3.28;;;;;;;;;;5034627;28;20052;-87
2022/12/13 06:08:33;;;;;;;7.57;3.15;;;;;;;;;;5034287;28;20103;-87
2022/12/13 06:11:00;;;;;;;5.00;4.47;;;;;;;;;;5033916;28;20053;-86
2022/12/13 06:13:27;;;;;;;4.82;3.63;;;;;;;;;;5035144;28;20083;-85
2022/12/13 06:15:52;;;;;;;6.10;3.60;;;;;;;;;;5035686;28;20042;-83
2022/12/13 06:18:18;;;;;;;3.17;2.78;;;;;;;;;;5036716;28;20032;-84
2022/12/13 06:20:43;;;;;;;4.18;3.05;;;;;;;;;;5033352;28;20048;-84
2022/12/13 06:23:09;;;;;;;3.00;2.20;;;;;;;;;;5035958;28;20109;-84
2022/12/13 06:25:37;;;;;;;7.03;2.80;;;;;;;;;;5031509;28;20753;-84
2022/12/13 06:28:03;;;;;;;3.90;3.25;;;;;;;;;;5034955;28;20029;-82
2022/12/13 06:30:29;;;;;;;6.00;2.92;;;;;;;;;;5031623;28;20432;-83
2022/12/13 06:32:55;;;;;;;8.80;2.40;;;;;;;;;;5032714;28;20079;-83
2022/12/13 06:35:20;;;;;;;3.30;2.45;;;;;;;;;;5036265;28;20021;-82
2022/12/13 06:37:50;;;;;;;3.08;2.75;;;;;;;;;;5035532;28;20095;-85
2022/12/13 06:40:16;;;;;;;5.10;2.22;;;;;;;;;;5033297;28;20025;-83
2022/12/13 06:42:41;;;;;;;4.20;2.22;;;;;;;;;;5035740;28;20033;-83
2022/12/13 06:45:07;;;;;;;5.63;2.58;;;;;;;;;;5035470;28;20080;-82
2022/12/13 06:47:32;;;;;;;3.17;2.13;;;;;;;;;;5032100;28;20029;-83
2022/12/13 06:49:58;;;;;;;2.03;1.88;;;;;;;;;;5033867;28;20037;-84
2022/12/13 06:52:23;;;;;;;3.83;1.70;;;;;;;;;;5031570;28;20025;-84
2022/12/13 06:54:49;;;;;;;7.00;4.03;;;;;;;;;;5034150;28;20096;-84
2022/12/13 06:57:14;;;;;;;6.88;3.72;;;;;;;;;;5031655;28;20029;-84
2022/12/13 06:59:40;;;;;;;3.83;2.40;;;;;;;;;;5030587;28;20026;-84
2022/12/13 07:02:07;;;;;;;3.88;1.92;;;;;;;;;;5033315;28;20032;-84
2022/12/13 07:04:32;;;;;;;4.38;2.47;;;;;;;;;;5031559;28;20025;-84
2022/12/13 07:06:57;;;;;;;4.72;2.92;;;;;;;;;;5034956;28;20029;-83
2022/12/13 07:09:23;;;;;;;4.63;3.22;;;;;;;;;;5034090;28;20797;-83
2022/12/13 07:11:48;;;;;;;6.25;2.92;;;;;;;;;;5035140;28;20116;-83
2022/12/13 07:14:14;;;;;;;3.35;2.63;;;;;;;;;;5033079;28;20060;-83
2022/12/13 07:16:39;;;;;;;8.32;4.75;;;;;;;;;;5031196;28;20039;-83
2022/12/13 07:19:05;;;;;;;4.70;4.13;;;;;;;;;;5031509;28;20043;-82
2022/12/13 07:21:31;;;;;;;3.35;2.95;;;;;;;;;;5031255;28;20017;-85
2022/12/13 07:23:57;;;;;;;4.05;2.67;;;;;;;;;;5034477;28;20432;-84
2022/12/13 07:26:22;;;;;;;1.70;1.60;;;;;;;;;;5033171;28;20059;-84
2022/12/13 07:28:48;;;;;;;3.95;2.70;;;;;;;;;;5035000;28;20049;-84
2022/12/13 07:31:14;;;;;;;3.25;2.20;;;;;;;;;;5035967;28;20040;-85
2022/12/13 07:33:39;;;;;;;4.18;2.45;;;;;;;;;;5032522;28;20021;-84
2022/12/13 07:36:15;;;;;;;2.65;2.33;;;;;;;;;;5038828;28;20023;-85
2022/12/13 07:38:41;;;;;;;3.58;2.88;;;;;;;;;;5035711;28;20063;-84
2022/12/13 07:41:07;;;;;;;7.82;4.55;;;;;;;;;;5041394;28;20082;-83
2022/12/13 07:43:34;;;;;;;2.40;1.80;;;;;;;;;;5037608;28;20037;-83
2022/12/13 07:46:02;;;;;;;5.53;2.83;;;;;;;;;;5032395;28;20025;-83
2022/12/13 07:48:28;;;;;;;2.58;2.13;;;;;;;;;;5032209;28;20095;-84
2022/12/13 07:50:59;;;;;;;5.00;2.17;;;;;;;;;;5034235;28;20108;-84
2022/12/13 07:53:24;;;;;;;5.22;3.63;;;;;;;;;;5036333;28;20570;-84
2022/12/13 07:55:49;;;;;;;9.57;2.90;;;;;;;;;;5034917;28;20022;-84
2022/12/13 07:58:15;;;;;;;3.80;2.70;;;;;;;;;;5035126;28;20037;-84
2022/12/13 08:00:43;;;;;;;7.07;3.30;;;;;;;;;;5031614;28;20029;-83
2022/12/13 08:03:08;;;;;;;2.42;2.03;;;;;;;;;;5030911;28;20103;-83
2022/12/13 08:05:35;;;;;;;2.65;2.45;;;;;;;;;;5030688;28;20077;-84
2022/12/13 08:08:02;;;;;;;3.08;2.05;;;;;;;;;;5031732;28;20063;-83
2022/12/13 08:10:27;;;;;;;2.85;2.50;;;;;;;;;;5030072;28;20072;-83
2022/12/13 08:12:53;;;;;;;4.10;3.50;;;;;;;;;;5032741;28;20168;-83
2022/12/13 08:15:19;;;;;;;9.63;3.97;;;;;;;;;;5034035;28;20021;-84
2022/12/13 08:17:44;;;;;;;7.60;4.13;;;;;;;;;;5032926;28;20022;-84
2022/12/13 08:20:10;;;;;;;6.13;5.07;;;;;;;;;;5031067;28;20100;-84
2022/12/13 08:22:36;;;;;;;16.00;9.02;;;;;;;;;;5032071;28;20116;-84
2022/12/13 08:25:01;;;;;;;9.43;7.15;;;;;;;;;;5030484;28;20033;-84
2022/12/13 08:27:27;;;;;;;10.13;2.67;;;;;;;;;;5030508;28;20477;-84
2022/12/13 08:29:52;;;;;;;3.42;2.45;;;;;;;;;;5032265;28;20060;-84
2022/12/13 08:32:18;;;;;;;3.88;3.40;;;;;;;;;;5031560;28;20034;-84
2022/12/13 08:34:44;;;;;;;3.83;3.05;;;;;;;;;;5033399;28;20052;-84
2022/12/13 08:37:11;;;;;;;5.50;4.00;;;;;;;;;;5034174;28;20013;-84
2022/12/13 08:39:37;;;;;;;4.50;3.28;;;;;;;;;;5036493;28;20025;-83
2022/12/13 08:42:05;;;;;;;3.97;3.45;;;;;;;;;;5033194;28;20033;-83
2022/12/13 08:44:31;;;;;;;5.93;4.10;;;;;;;;;;5032412;28;20029;-83
2022/12/13 08:46:56;;;;;;;6.72;4.03;;;;;;;;;;5033937;28;20052;-84
2022/12/13 08:49:21;;;;;;;5.93;2.25;;;;;;;;;;5032246;28;20033;-83
2022/12/13 08:51:47;;;;;;;3.38;3.00;;;;;;;;;;5031938;28;20141;-84
2022/12/13 08:54:13;;;;;;;6.15;3.92;;;;;;;;;;5036076;28;20033;-82
2022/12/13 08:56:38;;;;;;;3.28;2.08;;;;;;;;;;5034468;28;20022;-84
2022/12/13 08:59:03;;;;;;;7.30;3.80;;;;;;;;;;5031600;28;20025;-84
2022/12/13 09:01:29;;;;;;;3.75;3.40;;;;;;;;;;5033169;28;20052;-83
2022/12/13 09:03:55;;;;;;;2.95;2.08;;;;;;;;;;5028557;28;20037;-84
2022/12/13 09:06:20;;;;;;;5.68;4.50;;;;;;;;;;5034039;28;20099;-84
2022/12/13 09:08:46;;;;;;;3.65;3.33;;;;;;;;;;5031146;28;20040;-85
2022/12/13 09:11:11;;;;;;;4.57;3.92;;;;;;;;;;5034012;28;20033;-83
2022/12/13 09:13:38;;;;;;;5.45;3.33;;;;;;;;;;5035686;28;20474;-84
2022/12/13 09:16:09;;;;;;;3.30;3.00;;;;;;;;;;5034021;28;20051;-84
2022/12/13 09:18:35;;;;;;;3.55;2.67;;;;;;;;;;5031391;28;20108;-83
2022/12/13 09:21:05;;;;;;;5.53;4.15;;;;;;;;;;5035970;28;20100;-83
2022/12/13 09:23:31;;;;;;;5.82;4.53;;;;;;;;;;5036172;28;20045;-84
2022/12/13 09:25:59;;;;;;;5.15;3.65;;;;;;;;;;5033778;28;20450;-83
2022/12/13 09:28:25;;;;;;;4.32;2.72;;;;;;;;;;5033960;28;20025;-83
2022/12/13 09:30:51;;;;;;;5.78;3.30;;;;;;;;;;5034821;28;20030;-83
2022/12/13 09:33:16;;;;;;;8.40;3.25;;;;;;;;;;5034618;28;20072;-83
2022/12/13 09:35:42;;;;;;;4.30;3.25;;;;;;;;;;5034109;28;20030;-82
2022/12/13 09:38:07;;;;;;;4.20;3.35;;;;;;;;;;5037162;28;20033;-83
2022/12/13 09:40:36;;;;;;;6.35;3.63;;;;;;;;;;5034086;28;20017;-83
2022/12/13 09:43:02;;;;;;;3.70;3.28;;;;;;;;;;5031349;28;20431;-83
2022/12/13 09:45:28;;;;;;;4.53;4.10;;;;;;;;;;5032208;28;20687;-83
2022/12/13 09:47:55;;;;;;;5.25;4.03;;;;;;;;;;5033919;28;20040;-82
2022/12/13 09:50:27;;;;;;;5.07;3.85;;;;;;;;;;5033023;28;20491;-83
2022/12/13 09:52:53;;;;;;;5.72;3.38;;;;;;;;;;5035530;28;20390;-83
2022/12/13 09:55:22;;;;;;;7.70;3.58;;;;;;;;;;5036187;28;20041;-83
2022/12/13 09:57:48;;;;;;;5.75;4.15;;;;;;;;;;5047658;28;20021;-83
2022/12/13 10:00:18;;;;;;;5.57;4.25;;;;;;;;;;5034034;28;20021;-83
2022/12/13 10:02:46;;;;;;;5.47;3.13;;;;;;;;;;5032124;28;20034;-83
2022/12/13 10:05:23;;;;;;;4.38;3.95;;;;;;;;;;5031740;28;20051;-83
2022/12/13 10:07:50;;;;;;;4.00;2.78;;;;;;;;;;5032669;28;20048;-83
2022/12/13 10:10:16;;;;;;;8.10;3.28;;;;;;;;;;5032761;28;20021;-83
2022/12/13 10:12:43;;;;;;;2.88;2.15;;;;;;;;;;5032307;28;20036;-83
2022/12/13 10:15:12;;;;;;;7.35;5.18;;;;;;;;;;5034933;28;20021;-83
2022/12/13 10:17:47;;;;;;;4.30;3.25;;;;;;;;;;5033724;28;20045;-83
2022/12/13 10:20:19;;;;;;;7.28;2.75;;;;;;;;;;5031384;28;20040;-83
2022/12/13 10:22:45;;;;;;;5.57;3.08;;;;;;;;;;5031845;28;20120;-83
2022/12/13 10:25:11;;;;;;;8.48;2.35;;;;;;;;;;5033608;28;20025;-83
2022/12/13 10:27:42;;;;;;;2.85;2.47;;;;;;;;;;5035957;28;20025;-83
2022/12/13 10:30:12;;;;;;;1.38;1.27;;;;;;;;;;5035362;28;20033;-83
2022/12/13 10:32:56;;;;;;;6.55;2.50;;;;;;;;;;5032015;28;20480;-82
2022/12/13 10:35:34;;;;;;;2.05;1.92;;;;;;;;;;5028893;28;20028;-82
2022/12/13 10:38:19;;;;;;;2.63;2.25;;;;;;;;;;5045020;28;20124;-82
2022/12/13 10:40:47;;;;;;;3.38;2.03;;;;;;;;;;5032300;28;20041;-82
2022/12/13 10:43:23;;;;;;;2.15;1.27;;;;;;;;;;5033074;28;20056;-82
2022/12/13 10:45:54;;;;;;;3.35;2.33;;;;;;;;;;5036734;28;20477;-82
2022/12/13 10:48:28;;;;;;;3.75;1.95;;;;;;;;;;5035039;28;20068;-82
2022/12/13 10:51:14;;;;;;;8.25;3.95;;;;;;;;;;5032019;28;20036;-82
2022/12/13 10:53:49;;;;;;;2.22;2.10;;;;;;;;;;5036031;28;20025;-82
2022/12/13 10:56:19;;;;;;;2.22;1.77;;;;;;;;;;5034268;28;20029;-81
2022/12/13 10:58:45;;;;;;;;;;;;;;;;;;5033227;28;20029;-81
2022/12/13 11:01:16;;;;;;;2.97;1.98;;;;;;;;;;5032661;28;19913;-82
2022/12/13 11:03:54;;;;;;;4.32;2.95;;;;;;;;;;5031631;28;20140;-82
2022/12/13 11:06:19;;;;;;;4.32;3.15;;;;;;;;;;5031091;28;20095;-83
2022/12/13 11:08:45;;;;;;;2.88;2.67;;;;;;;;;;5033101;28;20033;-83
2022/12/13 11:11:11;;;;;;;5.28;1.90;;;;;;;;;;5030709;28;20061;-83
2022/12/13 11:13:43;;;;;;;4.03;2.80;;;;;;;;;;5033516;28;20075;-84
2022/12/13 11:16:20;;;;;;;9.65;4.35;;;;;;;;;;5029423;28;20029;-82
2022/12/13 11:18:52;;;;;;;4.13;3.50;;;;;;;;;;5036385;28;20028;-82
2022/12/13 11:21:29;;;;;;;1.52;1.42;;;;;;;;;;5034625;28;20099;-82
2022/12/13 11:23:59;;;;;;;5.30;1.27;;;;;;;;;;5035106;28;20025;-83
2022/12/13 11:26:27;;;;;;;3.70;2.22;;;;;;;;;;5030681;28;20477;-84
2022/12/13 11:29:01;;;;;;;1.67;1.58;;;;;;;;;;5036648;28;20027;-83
2022/12/13 11:31:37;;;;;;;2.70;2.42;;;;;;;;;;5036453;28;20579;-82
2022/12/13 11:34:30;;;;;;;1.63;1.52;;;;;;;;;;5036826;28;20094;-84
2022/12/13 11:37:14;;;;;;;1.58;1.48;;;;;;;;;;5034305;28;20060;-84
2022/12/13 11:39:51;;;;;;;11.50;2.75;;;;;;;;;;5047313;28;20453;-84
2022/12/13 11:42:19;;;;;;;1.55;1.45;;;;;;;;;;5029701;28;20116;-85
2022/12/13 11:44:57;;;;;;;2.28;2.03;;;;;;;;;;5032718;28;20029;-84
2022/12/13 11:47:55;;;;;;;1.27;1.25;;;;;;;;;;5031240;28;20029;-86
2022/12/13 12:05:48;;;;;;;;;;;;;;;;;;;;;
2022/12/13 12:08:20;;;;;;;1.10;1.00;;;;;;;;;;5008284;28;20106;-83
2022/12/13 12:10:48;;;;;;;1.50;1.40;;;;;;;;;;5031777;28;20085;-83
2022/12/13 12:13:27;;;;;;;2.08;1.52;;;;;;;;;;5033023;28;20101;-83
2022/12/13 12:16:08;;;;;;;3.08;1.80;;;;;;;;;;5031147;28;20033;-84
2022/12/13 12:18:34;;;;;;;3.35;1.60;;;;;;;;;;5031945;28;20060;-82
2022/12/13 12:21:15;;;;;;;3.45;1.80;;;;;;;;;;5032475;28;20052;-83
2022/12/13 12:24:02;;;;;;;3.75;2.10;;;;;;;;;;5031562;28;20109;-83
2022/12/13 12:26:39;;;;;;;1.00;0.90;;;;;;;;;;5029573;28;20029;-83
2022/12/13 12:29:23;;;;;;;3.35;2.10;;;;;;;;;;5031878;28;20040;-84
2022/12/13 12:32:04;;;;;;;2.05;1.73;;;;;;;;;;5029967;28;20495;-83
2022/12/13 12:34:44;;;;;;;1.58;1.48;;;;;;;;;;5031334;28;20085;-83
2022/12/13 12:37:31;;;;;;;3.80;1.65;;;;;;;;;;5031718;28;20026;-83
2022/12/13 12:40:10;;;;;;;2.20;1.83;;;;;;;;;;5031992;28;20029;-83
2022/12/13 12:42:58;;;;;;;3.35;2.28;;;;;;;;;;5029568;28;20029;-83
2022/12/13 12:45:45;;;;;;;2.55;2.20;;;;;;;;;;5032686;28;20493;-83
2022/12/13 12:48:44;;;;;;;1.30;1.10;;;;;;;;;;5036717;28;20141;-83
2022/12/13 12:51:17;;;;;;;1.13;1.10;;;;;;;;;;5034930;28;20075;-83
2022/12/13 12:53:45;;;;;;;2.05;1.58;;;;;;;;;;5035678;28;20025;-82
2022/12/13 12:56:39;;;;;;;2.08;1.90;;;;;;;;;;5034975;28;20056;-83
2022/12/13 12:59:26;;;;;;;3.38;1.50;;;;;;;;;;5051034;28;20465;-83
2022/12/13 13:02:12;;;;;;;3.08;2.55;;;;;;;;;;5038360;28;20029;-83
2022/12/13 13:04:45;;;;;;;3.10;1.63;;;;;;;;;;5031706;28;20462;-83
2022/12/13 13:07:27;;;;;;;1.42;1.23;;;;;;;;;;5035393;28;20532;-83
2022/12/13 13:09:54;;;;;;;1.23;1.10;;;;;;;;;;5031892;28;20030;-82
2022/12/13 13:12:20;;;;;;;3.03;1.70;;;;;;;;;;5033320;28;20367;-83
2022/12/13 13:14:45;;;;;;;1.88;0.98;;;;;;;;;;5034640;28;20032;-83
2022/12/13 13:17:23;;;;;;;3.90;2.03;;;;;;;;;;5034448;28;20021;-83
2022/12/13 13:20:07;;;;;;;1.25;1.15;;;;;;;;;;5034639;28;20021;-83
2022/12/13 13:22:34;;;;;;;4.38;1.98;;;;;;;;;;5031758;28;20370;-83
2022/12/13 13:25:06;;;;;;;1.15;1.05;;;;;;;;;;5034811;28;20029;-83
2022/12/13 13:27:39;;;;;;;3.35;1.88;;;;;;;;;;5033840;28;20022;-82
2022/12/13 13:30:18;;;;;;;1.83;1.70;;;;;;;;;;5032991;28;20030;-82
2022/12/13 13:32:44;;;;;;;4.63;1.40;;;;;;;;;;5031222;28;20025;-83
2022/12/13 13:35:31;;;;;;;1.60;1.50;;;;;;;;;;5033781;28;20274;-83
2022/12/13 13:38:01;;;;;;;1.20;1.00;;;;;;;;;;5037489;28;20172;-83
2022/12/13 13:40:38;;;;;;;2.42;2.22;;;;;;;;;;5034726;28;20134;-82
2022/12/13 13:43:09;;;;;;;3.60;2.00;;;;;;;;;;5043497;28;20112;-83
2022/12/13 13:45:58;;;;;;;1.55;1.45;;;;;;;;;;5029794;28;20041;-83
2022/12/13 13:48:41;;;;;;;9.98;3.40;;;;;;;;;;5033224;28;20048;-83
2022/12/13 13:51:34;;;;;;;3.00;2.47;;;;;;;;;;5040516;28;20115;-82
2022/12/13 13:54:14;;;;;;;4.13;2.50;;;;;;;;;;5034402;28;20104;-83
2022/12/13 13:56:54;;;;;;;2.28;2.08;;;;;;;;;;5032159;28;20104;-83
2022/12/13 13:59:57;;;;;;;8.20;2.17;;;;;;;;;;5034509;28;20063;-82
2022/12/13 14:02:44;;;;;;;3.55;2.88;;;;;;;;;;5032058;28;20037;-82
2022/12/13 14:05:13;;;;;;;8.27;3.15;;;;;;;;;;5044274;28;20045;-82
2022/12/13 14:07:53;;;;;;;9.27;3.67;;;;;;;;;;5033901;28;20044;-83
2022/12/13 14:10:30;;;;;;;3.55;2.53;;;;;;;;;;5033972;28;20057;-83
2022/12/13 14:13:25;;;;;;;7.72;2.45;;;;;;;;;;5032798;28;20486;-83
2022/12/13 14:16:35;;;;;;;6.47;3.08;;;;;;;;;;5032741;28;20025;-82
2022/12/13 14:19:38;;;;;;;4.32;2.67;;;;;;;;;;5033586;28;20029;-82
2022/12/13 14:22:22;;;;;;;2.22;1.50;;;;;;;;;;5034115;28;20044;-82
2022/12/13 14:25:25;;;;;;;1.88;1.45;;;;;;;;;;5032701;28;20037;-81
2022/12/13 14:28:15;;;;;;;3.88;2.25;;;;;;;;;;5047045;28;20030;-83
2022/12/13 14:30:41;;;;;;;;;;;;;;;;;;5033078;28;20501;-82
2022/12/13 14:33:18;;;;;;;2.88;1.85;;;;;;;;;;5031607;28;19913;-82
2022/12/13 14:35:51;;;;;;;2.50;2.30;;;;;;;;;;5032864;28;20033;-82
2022/12/13 14:38:22;;;;;;;4.65;2.13;;;;;;;;;;5032283;28;20080;-82
2022/12/13 14:40:54;;;;;;;4.78;2.08;;;;;;;;;;5030657;28;20057;-82
2022/12/13 14:43:26;;;;;;;9.27;3.30;;;;;;;;;;5034080;28;20025;-82
2022/12/13 14:45:57;;;;;;;2.80;2.60;;;;;;;;;;5032450;28;20029;-82
2022/12/13 14:48:23;;;;;;;3.47;2.78;;;;;;;;;;5033236;28;20489;-83
2022/12/13 14:50:51;;;;;;;2.75;2.30;;;;;;;;;;5033526;28;20063;-81
2022/12/13 14:53:27;;;;;;;4.97;2.40;;;;;;;;;;5032226;28;20040;-82
2022/12/13 14:56:13;;;;;;;2.65;1.98;;;;;;;;;;5032796;28;20466;-81
2022/12/13 14:58:51;;;;;;;1.83;1.73;;;;;;;;;;5032572;28;20079;-82
2022/12/13 15:01:32;;;;;;;3.53;2.33;;;;;;;;;;5033040;28;20492;-82
2022/12/13 15:04:16;;;;;;;2.50;2.17;;;;;;;;;;5030577;28;20068;-82
2022/12/13 15:06:43;;;;;;;1.83;1.67;;;;;;;;;;5030611;28;20056;-82
2022/12/13 15:09:13;;;;;;;3.38;2.00;;;;;;;;;;5030835;28;20532;-83
2022/12/13 15:11:41;;;;;;;1.90;1.80;;;;;;;;;;5032186;28;20068;-81
2022/12/13 15:14:14;;;;;;;3.78;1.63;;;;;;;;;;5033661;28;20029;-83
2022/12/13 15:16:49;;;;;;;1.92;1.70;;;;;;;;;;5032489;28;20385;-82
2022/12/13 15:19:17;;;;;;;9.00;1.63;;;;;;;;;;5033357;28;20025;-82
2022/12/13 15:22:00;;;;;;;2.38;2.15;;;;;;;;;;5037983;28;20100;-81
2022/12/13 15:24:32;;;;;;;2.15;1.38;;;;;;;;;;5033183;28;20412;-82
2022/12/13 15:26:58;;;;;;;1.38;1.27;;;;;;;;;;5032506;28;20115;-82